Data for 04/01/2013

Time Sea-Level Adjusted Pressure Absolute Pressure Temperature Relative Humidity Dew Point   
(mb) (inHg) (mb) (inHg) (C) (F) (%) (C) (F)
00:05 1019 30.09 848 25.04 3.5 38.3 46 -6.9 19.5
00:10 1019 30.09 848 25.04 3.5 38.3 47 -6.8 19.7
00:15 1019 30.09 848 25.04 3.6 38.5 46 -6.9 19.6
00:20 1019 30.09 848 25.04 3.7 38.6 46 -6.8 19.7
00:25 1019 30.09 848 25.04 3.6 38.5 46 -6.9 19.6
00:30 1019 30.09 848 25.04 3.5 38.2 47 -6.9 19.5
00:35 1019 30.09 848 25.04 3.4 38.2 46 -7 19.3
00:40 1019 30.09 848 25.04 3.4 38 47 -6.9 19.6
00:45 1019 30.09 848 25.04 3.3 37.9 47 -7 19.4
00:50 1019 30.09 848 25.04 3.2 37.8 48 -6.9 19.6
00:55 1019 30.09 848 25.04 3.2 37.7 48 -6.9 19.6
01:00 1019 30.09 848 25.04 3.2 37.8 47 -7 19.4
01:05 1019 30.09 848 25.04 3.3 37.9 47 -6.9 19.7
01:10 1019 30.09 848 25.04 3.3 38 47 -6.9 19.5
01:15 1019 30.09 848 25.04 3.2 37.8 48 -6.9 19.6
01:20 1019 30.09 848 25.04 3.1 37.6 48 -6.9 19.6
01:25 1019 30.09 848 25.04 3.1 37.5 48 -7 19.5
01:30 1019 30.09 848 25.04 3.1 37.5 48 -6.8 19.7
01:35 1019 30.09 848 25.04 3 37.4 48 -7 19.3
01:40 1019 30.09 848 25.04 3 37.3 49 -6.8 19.7
01:45 1019 30.09 848 25.04 2.9 37.2 49 -6.9 19.6
01:50 1019 30.09 848 25.04 2.9 37.2 49 -6.9 19.6
01:55 1019 30.09 848 25.04 2.8 37.1 49 -6.8 19.7
02:00 1019 30.09 848 25.04 2.7 36.9 49 -6.8 19.7
02:05 1019 30.09 848 25.04 2.7 36.8 49 -6.9 19.5
02:10 1019 30.09 848 25.04 2.7 36.8 49 -7 19.3
02:15 1019 30.09 848 25.04 2.7 36.9 49 -7.1 19.2
02:20 1019 30.09 848 25.04 2.7 36.9 48 -7.1 19.2
02:25 1019 30.09 848 25.04 2.6 36.7 49 -7.1 19.2
02:30 1019 30.09 848 25.04 2.5 36.5 49 -7.1 19.2
02:35 1019 30.09 848 25.04 2.4 36.3 49 -7.1 19.2
02:40 1019 30.09 848 25.04 2.4 36.2 50 -7.1 19.2
02:45 1019 30.09 848 25.04 2.3 36.2 50 -7.2 19.1
02:50 1019 30.09 848 25.04 2.3 36.1 50 -7.2 19
02:55 1019 30.09 848 25.04 2.3 36.2 49 -7.2 19
03:00 1019 30.09 848 25.04 2.3 36.2 49 -7.2 19
03:05 1019 30.09 848 25.04 2.3 36.2 50 -7.2 19.1
03:10 1019 30.09 848 25.04 2.3 36.1 50 -7.2 19
03:15 1019 30.09 848 25.04 2.2 36 50 -7.1 19.2
03:20 1019 30.09 848 25.04 2.1 35.9 50 -7.1 19.2
03:25 1019 30.09 848 25.04 2.1 35.8 51 -7.1 19.2
03:30 1019 30.09 848 25.04 2.1 35.7 51 -7.1 19.2
03:35 1019 30.09 848 25.04 2 35.7 51 -7.1 19.2
03:40 1019 30.09 848 25.04 2 35.6 51 -7.1 19.2
03:45 1019 30.09 848 25.04 1.9 35.5 51 -7.1 19.3
03:50 1019 30.09 848 25.04 1.9 35.5 51 -7.1 19.1
03:55 1019 30.09 848 25.04 1.9 35.4 51 -7.1 19.3
04:00 1019 30.09 848 25.04 1.9 35.5 51 -7.1 19.1
04:05 1019 30.09 848 25.04 2 35.5 51 -7.1 19.2
04:10 1019 30.09 848 25.04 1.9 35.5 52 -7 19.4
04:15 1019 30.09 848 25.04 1.9 35.4 51 -7.1 19.2
04:20 1019 30.09 848 25.04 1.9 35.5 51 -7.2 19.1
04:25 1019 30.09 848 25.04 2 35.6 51 -7.1 19.2
04:30 1019 30.09 848 25.04 2.1 35.7 51 -7.1 19.2
04:35 1019 30.09 848 25.04 2.1 35.8 51 -7.1 19.3
04:40 1019 30.09 848 25.04 2 35.7 51 -7.1 19.3
04:45 1019 30.09 848 25.04 1.9 35.5 51 -7 19.3
04:50 1019 30.09 848 25.04 1.8 35.3 52 -7 19.3
04:55 1019 30.09 848 25.04 1.7 35.1 53 -7 19.5
05:00 1019 30.09 848 25.04 1.7 35 52 -7.1 19.2
05:05 1019 30.09 848 25.04 1.7 35.1 52 -7.1 19.3
05:10 1019 30.09 848 25.04 1.6 35 52 -7.1 19.1
05:15 1019 30.09 848 25.04 1.6 34.9 52 -7.1 19.2
05:20 1019 30.09 848 25.04 1.6 34.9 53 -7.1 19.3
05:25 1019 30.09 848 25.04 1.6 34.8 52 -7.2 19.1
05:30 1019 30.09 848 25.04 1.7 35 52 -7.2 19.1
05:35 1019 30.09 848 25.04 1.7 35 52 -7.1 19.2
05:40 1019 30.09 848 25.04 1.6 34.9 52 -7.2 19.1
05:45 1019 30.09 848 25.04 1.6 34.8 52 -7.2 19.1
05:50 1019 30.09 848 25.04 1.5 34.7 53 -7.1 19.3
05:55 1019 30.09 848 25.04 1.5 34.7 53 -7.1 19.2
06:00 1019 30.09 848 25.04 1.5 34.8 53 -7.1 19.2
06:05 1019 30.09 848 25.04 1.6 34.8 53 -7.1 19.3
06:10 1019 30.09 848 25.04 1.6 35 52 -7.3 18.9
06:15 1019 30.09 848 25.04 1.8 35.3 51 -7.2 19
06:20 1019 30.09 848 25.04 1.9 35.3 51 -7.2 19.1
06:25 1019 30.09 848 25.04 1.9 35.4 51 -7.2 19
06:30 1019 30.09 848 25.04 2 35.6 51 -7.2 19
06:35 1019 30.09 848 25.04 2 35.6 50 -7.2 19
06:40 1019 30.09 848 25.04 2.1 35.8 50 -7.3 18.9
06:45 1019 30.09 848 25.04 2.2 36 50 -7.3 18.9
06:50 1019 30.09 848 25.04 2.3 36.2 49 -7.2 19
06:55 1019 30.09 848 25.04 2.4 36.4 49 -7.2 19.1
07:00 1019 30.09 848 25.04 2.5 36.5 49 -7.2 19
07:05 1019 30.09 848 25.04 2.7 36.8 49 -7.1 19.2
07:10 1019 30.09 848 25.04 2.9 37.2 47 -7.3 18.9
07:15 1019 30.09 848 25.04 3.2 37.8 46 -7.4 18.8
07:20 1019 30.09 848 25.04 3.4 38.1 46 -7.3 18.9
07:25 1019 30.09 848 25.04 3.4 38 45 -7.4 18.7
07:30 1019 30.09 848 25.04 3.4 38.2 45 -7.3 18.9
07:35 1019 30.09 848 25.04 3.6 38.5 45 -7.3 18.9
07:40 1019 30.09 848 25.04 3.7 38.6 44 -7.4 18.8
07:45 1019 30.09 848 25.04 3.7 38.7 44 -7.3 18.8
07:50 1019 30.09 848 25.04 3.9 39 44 -7.4 18.7
07:55 1019 30.09 848 25.04 4 39.2 44 -7.2 19
08:00 1019 30.09 848 25.04 4.1 39.5 43 -7.3 18.9
08:05 1019 30.09 848 25.04 4.1 39.3 44 -7.1 19.2
08:10 1019 30.09 848 25.04 4.2 39.6 43 -7.2 19.1
08:15 1019 30.09 848 25.04 4.4 39.9 44 -6.9 19.6
08:20 1019 30.09 848 25.04 4.5 40.2 44 -6.8 19.7
08:25 1019 30.09 848 25.04 4.8 40.6 44 -6.6 20.1
08:30 1019 30.09 848 25.04 4.9 40.8 44 -6.3 20.6
08:35 1019 30.09 848 25.04 5 41.1 44 -6.3 20.6
08:40 1019 30.09 848 25.04 5.1 41.2 43 -6.4 20.4
08:45 1019 30.09 848 25.04 5.3 41.5 43 -6.5 20.3
08:50 1019 30.09 848 25.04 5.5 41.9 42 -6.4 20.4
08:55 1019 30.09 848 25.04 5.5 42 42 -6.5 20.3
09:00 1019 30.09 848 25.04 5.9 42.6 41 -6.4 20.4
09:05 1019 30.09 848 25.04 6 42.8 41 -6.3 20.6
09:10 1019 30.09 848 25.04 6.2 43.1 40 -6.4 20.6
09:15 1019 30.09 848 25.04 6.1 42.9 40 -6.4 20.5
09:20 1019 30.09 848 25.04 6.4 43.4 40 -6.2 20.8
09:25 1019 30.09 848 25.04 6.3 43.4 40 -6.4 20.5
09:30 1019 30.09 848 25.04 6.3 43.3 40 -6.3 20.7
09:35 1019 30.09 848 25.04 6.5 43.7 40 -6.3 20.6
09:40 1019 30.09 848 25.04 7.1 44.8 37 -6.6 20.2
09:45 1019 30.09 848 25.04 7.5 45.6 37 -6.3 20.7
09:50 1019 30.09 848 25.04 7.9 46.1 36 -6.4 20.5
09:55 1019 30.09 848 25.04 7.8 46 36 -6.4 20.5
10:00 1019 30.09 848 25.04 7.8 46 36 -6.3 20.6
10:05 1019 30.09 848 25.04 8 46.4 35 -6.6 20.2
10:10 1019 30.09 848 25.04 8.4 47.1 34 -6.4 20.4
10:15 1019 30.09 848 25.04 8.3 46.9 35 -6.3 20.6
10:20 1019 30.09 848 25.04 8.3 47 34 -6.6 20.1
10:25 1019 30.09 848 25.04 8.5 47.3 34 -6.3 20.7
10:30 1019 30.09 848 25.04 8.5 47.3 34 -6.7 20
10:35 1019 30.09 848 25.04 8.6 47.4 33 -6.7 19.9
10:40 1019 30.09 848 25.04 8.9 48 32 -6.7 19.9
10:45 1019 30.09 848 25.04 8.8 47.8 33 -6.5 20.3
10:50 1019 30.09 848 25.04 8.9 48.1 33 -6.6 20.1
10:55 1019 30.09 848 25.04 9.3 48.7 32 -6.5 20.3
11:00 1018 30.06 848 25.04 9.1 48.3 33 -6.5 20.4
11:05 1018 30.06 848 25.04 9.2 48.5 33 -6.2 20.9
11:10 1018 30.06 848 25.04 9.5 49.1 32 -6.3 20.7
11:15 1018 30.06 848 25.04 9.5 49.2 33 -6.1 21
11:20 1018 30.06 848 25.04 9.6 49.3 32 -6.3 20.7
11:25 1018 30.06 848 25.04 9.5 49 33 -6 21.2
11:30 1018 30.06 848 25.04 9.7 49.4 33 -6 21.3
11:35 1018 30.06 847 25.01 9.7 49.5 32 -6.3 20.7
11:40 1018 30.06 847 25.01 9.9 49.9 33 -5.7 21.7
11:45 1018 30.06 847 25.01 9.5 49.1 33 -5.9 21.4
11:50 1018 30.06 847 25.01 9.6 49.3 32 -6.2 20.8
11:55 1018 30.06 847 25.01 9.9 49.9 32 -5.8 21.5
12:00 1018 30.06 847 25.01 10 50 32 -5.8 21.5
12:05 1018 30.06 847 25.01 10.1 50.2 32 -5.9 21.4
12:10 1018 30.06 847 25.01 10.6 51 31 -5.7 21.7
12:15 1018 30.06 847 25.01 10.7 51.2 31 -5.7 21.7
12:20 1018 30.06 847 25.01 10.7 51.2 31 -5.9 21.3
12:25 1018 30.06 847 25.01 10.9 51.7 30 -6.1 21.1
12:30 1018 30.06 847 25.01 11.2 52.2 30 -5.8 21.6
12:35 1018 30.06 847 25.01 11.3 52.4 29 -5.9 21.4
12:40 1018 30.06 847 25.01 11.2 52.2 30 -5.9 21.4
12:45 1018 30.06 847 25.01 11.5 52.8 29 -6 21.2
12:50 1018 30.06 847 25.01 11.8 53.3 29 -5.7 21.7
12:55 1018 30.06 847 25.01 12 53.6 28 -5.9 21.4
13:00 1018 30.06 847 25.01 11.7 53 29 -5.9 21.5
13:05 1018 30.06 847 25.01 12 53.5 29 -5.6 21.8
13:10 1018 30.06 847 25.01 11.9 53.4 28 -6 21.2
13:15 1018 30.06 847 25.01 11.8 53.2 28 -6.1 21.1
13:20 1018 30.06 847 25.01 11.8 53.2 29 -5.7 21.8
13:25 1018 30.06 847 25.01 12 53.5 28 -6.2 20.9
13:30 1018 30.06 847 25.01 12.2 54 27 -6.1 21.1
13:35 1018 30.06 847 25.01 12.4 54.4 27 -6.2 20.8
13:40 1018 30.06 847 25.01 12.4 54.3 26 -6.4 20.4
13:45 1018 30.06 847 25.01 12.6 54.6 26 -6.5 20.3
13:50 1018 30.06 847 25.01 12.4 54.3 25 -6.8 19.7
13:55 1018 30.06 847 25.01 12.5 54.5 25 -6.8 19.8
14:00 1018 30.06 847 25.01 12.8 55.1 25 -6.8 19.7
14:05 1018 30.06 847 25.01 12.6 54.8 25 -6.6 20
14:10 1018 30.06 847 25.01 12.6 54.6 25 -6.8 19.8
14:15 1018 30.06 847 25.01 12.4 54.4 25 -6.9 19.6
14:20 1018 30.06 847 25.01 12.7 54.9 24 -7.2 19.1
14:25 1017 30.03 847 25.01 12.9 55.1 24 -7.4 18.6
14:30 1017 30.03 847 25.01 13.1 55.5 24 -7.2 19.1
14:35 1017 30.03 847 25.01 12.8 55.1 24 -7.4 18.6
14:40 1017 30.03 847 25.01 13 55.4 24 -7.3 18.8
14:45 1017 30.03 847 25.01 13.1 55.6 23 -7.5 18.4
14:50 1017 30.03 847 25.01 13.1 55.5 22 -7.9 17.7
14:55 1017 30.03 847 25.01 12.8 55.1 22 -8.3 17
15:00 1017 30.03 847 25.01 12.9 55.2 22 -8 17.5
15:05 1017 30.03 847 25.01 13.3 56 22 -8.1 17.5
15:10 1017 30.03 847 25.01 13.1 55.5 22 -8.1 17.4
15:15 1017 30.03 847 25.01 13.6 56.6 22 -7.8 18
15:20 1017 30.03 847 25.01 13.3 55.9 22 -7.9 17.8
15:25 1017 30.03 846 24.98 12.9 55.2 22 -8.2 17.2
15:30 1017 30.03 846 24.98 12.9 55.2 22 -8 17.5
15:35 1017 30.03 846 24.98 13.1 55.6 22 -7.8 17.9
15:40 1017 30.03 846 24.98 12.9 55.2 22 -8.1 17.5
15:45 1017 30.03 846 24.98 12.8 55 23 -7.8 18
15:50 1017 30.03 846 24.98 12.9 55.1 23 -7.8 18
15:55 1017 30.03 846 24.98 12.9 55.1 23 -7.8 18
16:00 1017 30.03 846 24.98 12.6 54.7 23 -8 17.6
16:05 1017 30.03 846 24.98 12.7 54.8 23 -7.9 17.7
16:10 1017 30.03 846 24.98 12.9 55.2 22 -8 17.6
16:15 1017 30.03 846 24.98 12.8 55.1 23 -8 17.5
16:20 1017 30.03 846 24.98 12.7 54.8 23 -7.8 18
16:25 1017 30.03 846 24.98 12.6 54.7 23 -7.9 17.7
16:30 1017 30.03 846 24.98 12.7 54.9 23 -7.8 17.9
16:35 1017 30.03 846 24.98 12.5 54.6 23 -7.9 17.8
16:40 1017 30.03 846 24.98 12.5 54.5 23 -7.9 17.9
16:45 1017 30.03 846 24.98 12.5 54.5 23 -7.9 17.7
16:50 1017 30.03 846 24.98 12.4 54.3 23 -8.1 17.5
16:55 1017 30.03 846 24.98 12.4 54.4 23 -8.1 17.5
17:00 1017 30.03 846 24.98 12.4 54.2 23 -7.9 17.7
17:05 1017 30.03 846 24.98 12.3 54.1 23 -8.1 17.3
17:10 1017 30.03 846 24.98 12.3 54.1 24 -8 17.7
17:15 1017 30.03 846 24.98 12.2 53.9 23 -8.1 17.4
17:20 1017 30.03 846 24.98 12 53.6 24 -8.1 17.5
17:25 1017 30.03 846 24.98 11.8 53.3 24 -8.1 17.4
17:30 1017 30.03 846 24.98 11.8 53.3 24 -8 17.5
17:35 1017 30.03 846 24.98 11.7 53.1 24 -8 17.6
17:40 1017 30.03 846 24.98 11.6 52.9 25 -8 17.7
17:45 1017 30.03 846 24.98 11.5 52.8 25 -7.9 17.8
17:50 1017 30.03 846 24.98 11.5 52.7 25 -7.9 17.7
17:55 1017 30.03 846 24.98 11.4 52.5 25 -7.9 17.8
18:00 1017 30.03 846 24.98 11.3 52.3 26 -7.7 18.1
18:05 1017 30.03 846 24.98 11.2 52.1 26 -7.8 17.9
18:10 1017 30.03 846 24.98 11 51.9 26 -7.6 18.2
18:15 1017 30.03 846 24.98 10.9 51.7 26 -8 17.6
18:20 1017 30.03 846 24.98 10.8 51.4 26 -7.9 17.8
18:25 1017 30.03 846 24.98 10.6 51.1 27 -7.8 17.9
18:30 1017 30.03 846 24.98 10.5 50.8 27 -7.9 17.7
18:35 1017 30.03 846 24.98 10.3 50.5 27 -7.9 17.8
18:40 1017 30.03 846 24.98 10.1 50.2 27 -8 17.6
18:45 1017 30.03 846 24.98 10 49.9 28 -7.9 17.7
18:50 1017 30.03 846 24.98 9.8 49.6 28 -7.8 18
18:55 1017 30.03 847 25.01 9.5 49.2 28 -7.9 17.7
19:00 1017 30.03 847 25.01 9.4 49 29 -7.9 17.7
19:05 1017 30.03 847 25.01 9.2 48.6 29 -8 17.6
19:10 1017 30.03 847 25.01 9.1 48.4 29 -8 17.6
19:15 1017 30.03 847 25.01 8.9 48 30 -7.9 17.7
19:20 1018 30.06 847 25.01 8.7 47.6 30 -7.9 17.8
19:25 1018 30.06 847 25.01 8.5 47.3 30 -8.1 17.4
19:30 1018 30.06 847 25.01 8.5 47.3 30 -8.1 17.4
19:35 1018 30.06 847 25.01 8.4 47.1 30 -8 17.6
19:40 1018 30.06 847 25.01 8.1 46.6 31 -8.2 17.3
19:45 1018 30.06 847 25.01 7.9 46.3 31 -8 17.5
19:50 1018 30.06 847 25.01 7.7 45.9 32 -8.1 17.3
19:55 1018 30.06 847 25.01 7.7 45.9 31 -8.4 17
20:00 1018 30.06 847 25.01 7.7 45.8 31 -8.3 17.1
20:05 1018 30.06 847 25.01 7.6 45.7 32 -8.2 17.2
20:10 1018 30.06 847 25.01 7.5 45.4 32 -8.3 17.1
20:15 1018 30.06 847 25.01 7.4 45.3 32 -8.4 16.9
20:20 1018 30.06 847 25.01 7.4 45.2 32 -8.4 16.8
20:25 1018 30.06 847 25.01 7.3 45.1 31 -8.5 16.6
20:30 1018 30.06 847 25.01 7.3 45.2 32 -8.4 16.9
20:35 1018 30.06 847 25.01 7.2 45 32 -8.4 16.8
20:40 1018 30.06 847 25.01 7.2 45 32 -8.5 16.7
20:45 1018 30.06 847 25.01 7.1 44.8 32 -8.7 16.4
20:50 1018 30.06 847 25.01 7 44.7 32 -8.6 16.5
20:55 1018 30.06 847 25.01 7 44.7 32 -8.7 16.4
21:00 1018 30.06 847 25.01 7.1 44.7 31 -8.8 16.2
21:05 1018 30.06 847 25.01 7.1 44.8 31 -8.9 16.1
21:10 1018 30.06 847 25.01 7.1 44.9 31 -8.8 16.2
21:15 1018 30.06 847 25.01 7.1 44.7 31 -8.8 16.2
21:20 1018 30.06 847 25.01 7 44.5 32 -8.7 16.3
21:25 1018 30.06 847 25.01 6.9 44.4 32 -8.8 16.1
21:30 1018 30.06 847 25.01 6.8 44.2 32 -8.8 16.2
21:35 1018 30.06 847 25.01 6.7 44 32 -8.7 16.4
21:40 1018 30.06 847 25.01 6.5 43.7 32 -8.9 16
21:45 1018 30.06 847 25.01 6.4 43.6 33 -8.6 16.4
21:50 1018 30.06 847 25.01 6.2 43.1 34 -8.7 16.3
21:55 1018 30.06 847 25.01 6.1 42.9 34 -8.8 16.1
22:00 1018 30.06 847 25.01 6 42.7 34 -8.8 16.2
22:05 1018 30.06 847 25.01 6 42.7 34 -8.9 16
22:10 1018 30.06 847 25.01 5.9 42.7 34 -8.8 16.1
22:15 1018 30.06 847 25.01 5.8 42.4 35 -8.6 16.5
22:20 1018 30.06 847 25.01 5.6 42.1 35 -8.8 16.2
22:25 1018 30.06 847 25.01 5.6 42.2 34 -9 15.7
22:30 1018 30.06 847 25.01 5.8 42.4 34 -9 15.7
22:35 1018 30.06 847 25.01 5.8 42.4 34 -9 15.8
22:40 1018 30.06 847 25.01 5.8 42.4 34 -9.1 15.7
22:45 1018 30.06 847 25.01 5.7 42.2 34 -9 15.8
22:50 1018 30.06 847 25.01 5.6 42 34 -8.9 16
22:55 1018 30.06 847 25.01 5.4 41.7 35 -9 15.9
23:00 1018 30.06 847 25.01 5.4 41.7 35 -8.8 16.2
23:05 1018 30.06 847 25.01 5.3 41.5 35 -8.9 16.1
23:10 1018 30.06 847 25.01 5.2 41.4 35 -9 15.8
23:15 1018 30.06 847 25.01 5.3 41.5 35 -9 15.8
23:20 1018 30.06 847 25.01 5.3 41.5 35 -9.1 15.6
23:25 1018 30.06 847 25.01 5.3 41.6 35 -9.1 15.7
23:30 1018 30.06 847 25.01 5.3 41.5 35 -8.9 15.9
23:35 1018 30.06 847 25.01 5.2 41.4 35 -9 15.7
23:40 1018 30.06 847 25.01 5.3 41.5 35 -8.9 16
23:45 1018 30.06 847 25.01 5.1 41.2 36 -8.9 16
23:50 1018 30.06 847 25.01 5.1 41.1 36 -8.9 16
23:55 1018 30.06 847 25.01 5 41 36 -8.8 16.1
24:00 1018 30.06 847 25.01 4.9 40.9 36 -8.8 16.2